sensor_id;sensor_type;location;lat;lon;timestamp;temperature;humidity
3602;DHT22;1815;50.950;6.920;2023-07-13T00:02:16;20.30;55.20
3602;DHT22;1815;50.950;6.920;2023-07-13T00:04:42;20.30;55.30
3602;DHT22;1815;50.950;6.920;2023-07-13T00:07:08;20.30;55.30
3602;DHT22;1815;50.950;6.920;2023-07-13T00:09:34;20.20;55.50
3602;DHT22;1815;50.950;6.920;2023-07-13T00:12:01;20.20;55.50
3602;DHT22;1815;50.950;6.920;2023-07-13T00:14:28;20.20;55.70
3602;DHT22;1815;50.950;6.920;2023-07-13T00:16:54;20.10;55.70
3602;DHT22;1815;50.950;6.920;2023-07-13T00:19:20;20.10;55.90
3602;DHT22;1815;50.950;6.920;2023-07-13T00:21:46;20.10;56.10
3602;DHT22;1815;50.950;6.920;2023-07-13T00:24:14;20.10;56.20
3602;DHT22;1815;50.950;6.920;2023-07-13T00:26:41;20.10;56.50
3602;DHT22;1815;50.950;6.920;2023-07-13T00:29:10;20.00;56.50
3602;DHT22;1815;50.950;6.920;2023-07-13T00:31:36;20.00;56.50
3602;DHT22;1815;50.950;6.920;2023-07-13T00:34:04;20.00;56.70
3602;DHT22;1815;50.950;6.920;2023-07-13T00:36:30;20.00;56.90
3602;DHT22;1815;50.950;6.920;2023-07-13T00:38:57;20.00;56.90
3602;DHT22;1815;50.950;6.920;2023-07-13T00:41:24;20.00;57.00
3602;DHT22;1815;50.950;6.920;2023-07-13T00:43:49;20.00;57.20
3602;DHT22;1815;50.950;6.920;2023-07-13T00:46:29;20.00;57.30
3602;DHT22;1815;50.950;6.920;2023-07-13T00:48:57;19.90;57.70
3602;DHT22;1815;50.950;6.920;2023-07-13T00:51:30;19.90;57.60
3602;DHT22;1815;50.950;6.920;2023-07-13T00:54:00;19.80;57.70
3602;DHT22;1815;50.950;6.920;2023-07-13T00:56:29;19.80;57.70
3602;DHT22;1815;50.950;6.920;2023-07-13T00:58:56;19.70;57.70
3602;DHT22;1815;50.950;6.920;2023-07-13T01:01:22;19.70;58.00
3602;DHT22;1815;50.950;6.920;2023-07-13T01:03:48;19.70;58.00
3602;DHT22;1815;50.950;6.920;2023-07-13T01:06:14;19.70;58.10
3602;DHT22;1815;50.950;6.920;2023-07-13T01:08:40;19.60;58.30
3602;DHT22;1815;50.950;6.920;2023-07-13T01:11:06;19.50;58.40
3602;DHT22;1815;50.950;6.920;2023-07-13T01:13:33;19.50;58.50
3602;DHT22;1815;50.950;6.920;2023-07-13T01:16:05;19.50;58.70
3602;DHT22;1815;50.950;6.920;2023-07-13T01:18:37;19.50;59.00
3602;DHT22;1815;50.950;6.920;2023-07-13T01:21:04;19.40;58.90
3602;DHT22;1815;50.950;6.920;2023-07-13T01:23:31;19.40;59.10
3602;DHT22;1815;50.950;6.920;2023-07-13T01:25:58;19.40;59.30
3602;DHT22;1815;50.950;6.920;2023-07-13T01:28:25;19.30;60.00
3602;DHT22;1815;50.950;6.920;2023-07-13T01:30:57;19.30;59.70
3602;DHT22;1815;50.950;6.920;2023-07-13T01:33:24;19.30;59.80
3602;DHT22;1815;50.950;6.920;2023-07-13T01:35:50;19.20;59.90
3602;DHT22;1815;50.950;6.920;2023-07-13T01:38:20;19.20;60.00
3602;DHT22;1815;50.950;6.920;2023-07-13T01:40:46;19.20;60.50
3602;DHT22;1815;50.950;6.920;2023-07-13T01:43:12;19.10;60.70
3602;DHT22;1815;50.950;6.920;2023-07-13T01:45:38;19.10;61.00
3602;DHT22;1815;50.950;6.920;2023-07-13T01:48:04;19.10;61.20
3602;DHT22;1815;50.950;6.920;2023-07-13T01:50:32;19.00;61.60
3602;DHT22;1815;50.950;6.920;2023-07-13T01:52:58;19.00;61.80
3602;DHT22;1815;50.950;6.920;2023-07-13T01:55:24;19.00;62.20
3602;DHT22;1815;50.950;6.920;2023-07-13T01:57:49;19.00;62.30
3602;DHT22;1815;50.950;6.920;2023-07-13T02:00:16;18.90;62.70
3602;DHT22;1815;50.950;6.920;2023-07-13T02:02:42;18.90;62.90
3602;DHT22;1815;50.950;6.920;2023-07-13T02:05:09;18.90;63.60
3602;DHT22;1815;50.950;6.920;2023-07-13T02:07:35;18.90;63.60
3602;DHT22;1815;50.950;6.920;2023-07-13T02:10:03;18.90;63.90
3602;DHT22;1815;50.950;6.920;2023-07-13T02:12:28;18.80;64.30
3602;DHT22;1815;50.950;6.920;2023-07-13T02:14:54;18.80;64.50
3602;DHT22;1815;50.950;6.920;2023-07-13T02:17:20;18.80;64.60
3602;DHT22;1815;50.950;6.920;2023-07-13T02:19:45;18.80;64.90
3602;DHT22;1815;50.950;6.920;2023-07-13T02:22:11;18.80;65.30
3602;DHT22;1815;50.950;6.920;2023-07-13T02:24:37;18.80;65.50
3602;DHT22;1815;50.950;6.920;2023-07-13T02:27:04;18.80;66.00
3602;DHT22;1815;50.950;6.920;2023-07-13T02:29:30;18.80;66.20
3602;DHT22;1815;50.950;6.920;2023-07-13T02:31:56;18.70;66.50
3602;DHT22;1815;50.950;6.920;2023-07-13T02:34:23;18.70;66.60
3602;DHT22;1815;50.950;6.920;2023-07-13T02:36:48;18.70;67.20
3602;DHT22;1815;50.950;6.920;2023-07-13T02:39:15;18.70;67.40
3602;DHT22;1815;50.950;6.920;2023-07-13T02:41:42;18.60;68.60
3602;DHT22;1815;50.950;6.920;2023-07-13T02:44:08;18.60;68.00
3602;DHT22;1815;50.950;6.920;2023-07-13T02:46:35;18.60;68.90
3602;DHT22;1815;50.950;6.920;2023-07-13T02:49:02;18.50;69.20
3602;DHT22;1815;50.950;6.920;2023-07-13T02:51:28;18.50;68.60
3602;DHT22;1815;50.950;6.920;2023-07-13T02:53:54;18.50;69.00
3602;DHT22;1815;50.950;6.920;2023-07-13T02:56:23;18.40;69.10
3602;DHT22;1815;50.950;6.920;2023-07-13T02:58:50;18.40;69.80
3602;DHT22;1815;50.950;6.920;2023-07-13T03:01:16;18.40;69.80
3602;DHT22;1815;50.950;6.920;2023-07-13T03:03:45;18.30;70.20
3602;DHT22;1815;50.950;6.920;2023-07-13T03:06:13;18.30;70.70
3602;DHT22;1815;50.950;6.920;2023-07-13T03:08:46;18.30;71.00
3602;DHT22;1815;50.950;6.920;2023-07-13T03:11:17;18.20;71.10
3602;DHT22;1815;50.950;6.920;2023-07-13T03:13:45;18.20;71.40
3602;DHT22;1815;50.950;6.920;2023-07-13T03:16:12;18.20;72.00
3602;DHT22;1815;50.950;6.920;2023-07-13T03:18:40;18.20;72.20
3602;DHT22;1815;50.950;6.920;2023-07-13T03:21:09;18.20;72.50
3602;DHT22;1815;50.950;6.920;2023-07-13T03:23:35;18.20;73.00
3602;DHT22;1815;50.950;6.920;2023-07-13T03:26:03;18.20;73.20
3602;DHT22;1815;50.950;6.920;2023-07-13T03:28:30;18.20;73.60
3602;DHT22;1815;50.950;6.920;2023-07-13T03:31:02;18.20;73.70
3602;DHT22;1815;50.950;6.920;2023-07-13T03:33:31;18.10;74.70
3602;DHT22;1815;50.950;6.920;2023-07-13T03:35:57;18.20;74.60
3602;DHT22;1815;50.950;6.920;2023-07-13T03:38:24;18.20;74.60
3602;DHT22;1815;50.950;6.920;2023-07-13T03:40:50;18.20;75.10
3602;DHT22;1815;50.950;6.920;2023-07-13T03:43:16;18.20;75.50
3602;DHT22;1815;50.950;6.920;2023-07-13T03:45:42;18.10;75.60
3602;DHT22;1815;50.950;6.920;2023-07-13T03:48:09;18.10;76.00
3602;DHT22;1815;50.950;6.920;2023-07-13T03:50:35;18.10;76.00
3602;DHT22;1815;50.950;6.920;2023-07-13T03:53:02;18.10;76.30
3602;DHT22;1815;50.950;6.920;2023-07-13T03:55:28;18.10;76.80
3602;DHT22;1815;50.950;6.920;2023-07-13T03:57:59;18.10;77.70
3602;DHT22;1815;50.950;6.920;2023-07-13T04:00:25;18.10;77.70
3602;DHT22;1815;50.950;6.920;2023-07-13T04:02:53;18.10;78.10
3602;DHT22;1815;50.950;6.920;2023-07-13T04:05:22;18.10;78.20
3602;DHT22;1815;50.950;6.920;2023-07-13T04:08:02;18.20;78.80
3602;DHT22;1815;50.950;6.920;2023-07-13T04:10:30;18.20;78.80
3602;DHT22;1815;50.950;6.920;2023-07-13T04:12:56;18.20;79.30
3602;DHT22;1815;50.950;6.920;2023-07-13T04:15:22;18.30;79.70
3602;DHT22;1815;50.950;6.920;2023-07-13T04:17:47;18.30;79.90
3602;DHT22;1815;50.950;6.920;2023-07-13T04:20:13;18.40;80.50
3602;DHT22;1815;50.950;6.920;2023-07-13T04:22:39;18.40;80.70
3602;DHT22;1815;50.950;6.920;2023-07-13T04:25:05;18.40;80.70
3602;DHT22;1815;50.950;6.920;2023-07-13T04:27:31;18.50;81.10
3602;DHT22;1815;50.950;6.920;2023-07-13T04:29:57;18.50;81.30
3602;DHT22;1815;50.950;6.920;2023-07-13T04:32:22;18.60;81.80
3602;DHT22;1815;50.950;6.920;2023-07-13T04:34:48;18.70;82.90
3602;DHT22;1815;50.950;6.920;2023-07-13T04:37:19;19.00;83.80
3602;DHT22;1815;50.950;6.920;2023-07-13T04:39:45;19.20;84.60
3602;DHT22;1815;50.950;6.920;2023-07-13T04:42:11;19.40;84.60
3602;DHT22;1815;50.950;6.920;2023-07-13T04:44:36;19.60;84.20
3602;DHT22;1815;50.950;6.920;2023-07-13T04:47:02;19.70;83.90
3602;DHT22;1815;50.950;6.920;2023-07-13T04:49:28;19.80;83.60
3602;DHT22;1815;50.950;6.920;2023-07-13T04:51:53;19.90;83.30
3602;DHT22;1815;50.950;6.920;2023-07-13T04:54:20;19.90;83.50
3602;DHT22;1815;50.950;6.920;2023-07-13T04:56:47;20.10;84.10
3602;DHT22;1815;50.950;6.920;2023-07-13T04:59:13;20.30;84.60
3602;DHT22;1815;50.950;6.920;2023-07-13T05:01:50;20.40;84.70
3602;DHT22;1815;50.950;6.920;2023-07-13T05:04:16;20.60;84.40
3602;DHT22;1815;50.950;6.920;2023-07-13T05:06:42;20.70;83.90
3602;DHT22;1815;50.950;6.920;2023-07-13T05:09:08;20.80;83.80
3602;DHT22;1815;50.950;6.920;2023-07-13T05:11:34;21.00;84.40
3602;DHT22;1815;50.950;6.920;2023-07-13T05:14:00;21.20;84.20
3602;DHT22;1815;50.950;6.920;2023-07-13T05:16:27;21.40;83.90
3602;DHT22;1815;50.950;6.920;2023-07-13T05:18:53;21.40;83.40
3602;DHT22;1815;50.950;6.920;2023-07-13T05:21:19;21.40;82.90
3602;DHT22;1815;50.950;6.920;2023-07-13T05:23:45;21.50;82.70
3602;DHT22;1815;50.950;6.920;2023-07-13T05:26:10;21.50;82.40
3602;DHT22;1815;50.950;6.920;2023-07-13T05:28:37;21.50;82.20
3602;DHT22;1815;50.950;6.920;2023-07-13T05:31:04;21.50;82.20
3602;DHT22;1815;50.950;6.920;2023-07-13T05:33:30;21.40;82.00
3602;DHT22;1815;50.950;6.920;2023-07-13T05:35:56;21.40;82.30
3602;DHT22;1815;50.950;6.920;2023-07-13T05:38:22;21.40;82.50
3602;DHT22;1815;50.950;6.920;2023-07-13T05:40:49;21.40;83.40
3602;DHT22;1815;50.950;6.920;2023-07-13T05:43:15;21.50;82.90
3602;DHT22;1815;50.950;6.920;2023-07-13T05:45:41;21.60;83.30
3602;DHT22;1815;50.950;6.920;2023-07-13T05:48:07;21.60;83.30
3602;DHT22;1815;50.950;6.920;2023-07-13T05:50:32;21.80;83.60
3602;DHT22;1815;50.950;6.920;2023-07-13T05:52:58;21.90;83.80
3602;DHT22;1815;50.950;6.920;2023-07-13T05:55:24;21.90;83.80
3602;DHT22;1815;50.950;6.920;2023-07-13T05:57:49;22.10;83.90
3602;DHT22;1815;50.950;6.920;2023-07-13T06:00:15;22.20;84.00
3602;DHT22;1815;50.950;6.920;2023-07-13T06:02:42;22.40;84.30
3602;DHT22;1815;50.950;6.920;2023-07-13T06:05:08;22.80;84.90
3602;DHT22;1815;50.950;6.920;2023-07-13T06:07:34;23.20;85.60
3602;DHT22;1815;50.950;6.920;2023-07-13T06:09:59;23.70;85.50
3602;DHT22;1815;50.950;6.920;2023-07-13T06:12:26;24.20;85.10
3602;DHT22;1815;50.950;6.920;2023-07-13T06:14:52;24.50;83.80
3602;DHT22;1815;50.950;6.920;2023-07-13T06:17:17;24.80;82.70
3602;DHT22;1815;50.950;6.920;2023-07-13T06:19:43;25.10;82.40
3602;DHT22;1815;50.950;6.920;2023-07-13T06:22:09;25.60;82.20
3602;DHT22;1815;50.950;6.920;2023-07-13T06:24:35;26.10;82.20
3602;DHT22;1815;50.950;6.920;2023-07-13T06:27:00;26.80;82.10
3602;DHT22;1815;50.950;6.920;2023-07-13T06:29:27;27.30;81.00
3602;DHT22;1815;50.950;6.920;2023-07-13T06:31:52;27.90;79.00
3602;DHT22;1815;50.950;6.920;2023-07-13T06:34:18;28.30;77.70
3602;DHT22;1815;50.950;6.920;2023-07-13T06:36:44;28.70;76.30
3602;DHT22;1815;50.950;6.920;2023-07-13T06:39:10;29.20;74.60
3602;DHT22;1815;50.950;6.920;2023-07-13T06:41:36;29.40;72.90
3602;DHT22;1815;50.950;6.920;2023-07-13T06:44:02;29.50;71.20
3602;DHT22;1815;50.950;6.920;2023-07-13T06:46:29;29.50;69.10
3602;DHT22;1815;50.950;6.920;2023-07-13T06:48:55;29.50;68.00
3602;DHT22;1815;50.950;6.920;2023-07-13T06:51:21;29.80;68.50
3602;DHT22;1815;50.950;6.920;2023-07-13T06:53:47;29.90;67.20
3602;DHT22;1815;50.950;6.920;2023-07-13T06:56:13;29.70;65.70
3602;DHT22;1815;50.950;6.920;2023-07-13T06:58:39;29.50;64.50
3602;DHT22;1815;50.950;6.920;2023-07-13T07:01:05;29.20;63.60
3602;DHT22;1815;50.950;6.920;2023-07-13T07:03:31;28.90;63.00
3602;DHT22;1815;50.950;6.920;2023-07-13T07:06:11;28.50;62.70
3602;DHT22;1815;50.950;6.920;2023-07-13T07:08:37;28.20;62.50
3602;DHT22;1815;50.950;6.920;2023-07-13T07:11:03;27.90;63.20
3602;DHT22;1815;50.950;6.920;2023-07-13T07:13:28;27.70;63.50
3602;DHT22;1815;50.950;6.920;2023-07-13T07:15:55;27.60;64.30
3602;DHT22;1815;50.950;6.920;2023-07-13T07:18:21;27.80;65.30
3602;DHT22;1815;50.950;6.920;2023-07-13T07:20:48;27.90;65.40
3602;DHT22;1815;50.950;6.920;2023-07-13T07:23:14;28.00;65.30
3602;DHT22;1815;50.950;6.920;2023-07-13T07:25:40;28.00;64.70
3602;DHT22;1815;50.950;6.920;2023-07-13T07:28:08;28.00;64.30
3602;DHT22;1815;50.950;6.920;2023-07-13T07:30:33;27.90;63.90
3602;DHT22;1815;50.950;6.920;2023-07-13T07:33:00;27.90;63.90
3602;DHT22;1815;50.950;6.920;2023-07-13T07:35:26;27.80;63.70
3602;DHT22;1815;50.950;6.920;2023-07-13T07:37:52;27.70;63.50
3602;DHT22;1815;50.950;6.920;2023-07-13T07:40:18;27.60;63.50
3602;DHT22;1815;50.950;6.920;2023-07-13T07:42:44;27.50;63.60
3602;DHT22;1815;50.950;6.920;2023-07-13T07:45:10;27.30;63.50
3602;DHT22;1815;50.950;6.920;2023-07-13T07:47:37;27.20;63.60
3602;DHT22;1815;50.950;6.920;2023-07-13T07:50:03;27.10;63.70
3602;DHT22;1815;50.950;6.920;2023-07-13T07:52:29;26.90;63.70
3602;DHT22;1815;50.950;6.920;2023-07-13T07:54:55;26.80;63.90
3602;DHT22;1815;50.950;6.920;2023-07-13T07:57:21;26.60;64.00
3602;DHT22;1815;50.950;6.920;2023-07-13T07:59:47;26.60;64.30
3602;DHT22;1815;50.950;6.920;2023-07-13T08:02:13;26.50;64.60
3602;DHT22;1815;50.950;6.920;2023-07-13T08:04:39;26.40;65.00
3602;DHT22;1815;50.950;6.920;2023-07-13T08:07:05;26.40;65.40
3602;DHT22;1815;50.950;6.920;2023-07-13T08:09:32;26.40;65.70
3602;DHT22;1815;50.950;6.920;2023-07-13T08:11:58;26.40;65.70
3602;DHT22;1815;50.950;6.920;2023-07-13T08:14:23;26.50;66.10
3602;DHT22;1815;50.950;6.920;2023-07-13T08:16:49;26.50;66.00
3602;DHT22;1815;50.950;6.920;2023-07-13T08:19:15;26.60;66.10
3602;DHT22;1815;50.950;6.920;2023-07-13T08:21:41;26.70;66.10
3602;DHT22;1815;50.950;6.920;2023-07-13T08:24:09;26.80;66.00
3602;DHT22;1815;50.950;6.920;2023-07-13T08:26:35;26.90;65.90
3602;DHT22;1815;50.950;6.920;2023-07-13T08:29:00;26.90;66.00
3602;DHT22;1815;50.950;6.920;2023-07-13T08:31:27;27.00;66.10
3602;DHT22;1815;50.950;6.920;2023-07-13T08:33:53;27.10;66.30
3602;DHT22;1815;50.950;6.920;2023-07-13T08:36:19;27.30;66.10
3602;DHT22;1815;50.950;6.920;2023-07-13T08:38:44;27.40;66.80
3602;DHT22;1815;50.950;6.920;2023-07-13T08:41:15;27.60;65.90
3602;DHT22;1815;50.950;6.920;2023-07-13T08:43:44;27.80;65.30
3602;DHT22;1815;50.950;6.920;2023-07-13T08:48:50;28.10;64.20
3602;DHT22;1815;50.950;6.920;2023-07-13T08:53:58;28.30;63.60
3602;DHT22;1815;50.950;6.920;2023-07-13T08:56:28;28.40;63.20
3602;DHT22;1815;50.950;6.920;2023-07-13T08:59:01;28.60;63.30
3602;DHT22;1815;50.950;6.920;2023-07-13T09:04:14;28.90;62.30
3602;DHT22;1815;50.950;6.920;2023-07-13T09:06:55;29.10;62.10
3602;DHT22;1815;50.950;6.920;2023-07-13T09:14:59;29.30;59.60
3602;DHT22;1815;50.950;6.920;2023-07-13T09:17:30;29.30;59.90
3602;DHT22;1815;50.950;6.920;2023-07-13T09:22:36;29.40;59.80
3602;DHT22;1815;50.950;6.920;2023-07-13T09:27:52;29.70;59.50
3602;DHT22;1815;50.950;6.920;2023-07-13T09:30:33;29.90;59.70
3602;DHT22;1815;50.950;6.920;2023-07-13T09:32:59;30.00;59.00
3602;DHT22;1815;50.950;6.920;2023-07-13T09:35:27;30.20;59.20
3602;DHT22;1815;50.950;6.920;2023-07-13T09:37:59;30.30;58.80
3602;DHT22;1815;50.950;6.920;2023-07-13T09:43:08;30.40;57.50
3602;DHT22;1815;50.950;6.920;2023-07-13T09:45:36;30.30;57.40
3602;DHT22;1815;50.950;6.920;2023-07-13T09:48:20;30.20;57.10
3602;DHT22;1815;50.950;6.920;2023-07-13T09:50:46;30.20;57.10
3602;DHT22;1815;50.950;6.920;2023-07-13T09:53:17;30.20;57.50
3602;DHT22;1815;50.950;6.920;2023-07-13T09:55:45;30.20;57.30
3602;DHT22;1815;50.950;6.920;2023-07-13T09:58:22;30.30;57.40
3602;DHT22;1815;50.950;6.920;2023-07-13T10:01:03;30.30;56.80
3602;DHT22;1815;50.950;6.920;2023-07-13T10:03:34;30.30;56.60
3602;DHT22;1815;50.950;6.920;2023-07-13T10:06:16;30.30;56.30
3602;DHT22;1815;50.950;6.920;2023-07-13T10:08:44;30.30;55.90
3602;DHT22;1815;50.950;6.920;2023-07-13T10:11:17;30.30;56.10
3602;DHT22;1815;50.950;6.920;2023-07-13T10:13:58;30.40;56.30
3602;DHT22;1815;50.950;6.920;2023-07-13T10:16:34;30.60;56.20
3602;DHT22;1815;50.950;6.920;2023-07-13T10:19:11;30.70;55.60
3602;DHT22;1815;50.950;6.920;2023-07-13T10:21:52;30.90;55.00
3602;DHT22;1815;50.950;6.920;2023-07-13T10:24:22;31.10;55.20
3602;DHT22;1815;50.950;6.920;2023-07-13T10:29:25;31.20;53.80
3602;DHT22;1815;50.950;6.920;2023-07-13T10:31:52;31.10;53.80
3602;DHT22;1815;50.950;6.920;2023-07-13T10:34:18;31.00;53.50
3602;DHT22;1815;50.950;6.920;2023-07-13T10:36:46;30.90;53.50
3602;DHT22;1815;50.950;6.920;2023-07-13T10:39:24;30.90;53.40
3602;DHT22;1815;50.950;6.920;2023-07-13T10:41:55;30.80;52.50
3602;DHT22;1815;50.950;6.920;2023-07-13T10:44:28;30.80;53.40
3602;DHT22;1815;50.950;6.920;2023-07-13T10:47:06;30.90;53.40
3602;DHT22;1815;50.950;6.920;2023-07-13T10:49:34;31.00;53.40
3602;DHT22;1815;50.950;6.920;2023-07-13T10:52:01;31.10;52.80
3602;DHT22;1815;50.950;6.920;2023-07-13T10:54:31;31.20;52.60
3602;DHT22;1815;50.950;6.920;2023-07-13T10:57:15;31.20;52.50
3602;DHT22;1815;50.950;6.920;2023-07-13T10:59:42;31.30;51.70
3602;DHT22;1815;50.950;6.920;2023-07-13T11:02:22;31.30;52.10
3602;DHT22;1815;50.950;6.920;2023-07-13T11:04:49;31.20;51.60
3602;DHT22;1815;50.950;6.920;2023-07-13T11:07:24;31.00;51.30
3602;DHT22;1815;50.950;6.920;2023-07-13T11:09:55;30.80;50.80
3602;DHT22;1815;50.950;6.920;2023-07-13T11:17:51;29.60;50.90
3602;DHT22;1815;50.950;6.920;2023-07-13T11:20:31;29.30;51.50
3602;DHT22;1815;50.950;6.920;2023-07-13T11:25:38;28.60;52.10
3602;DHT22;1815;50.950;6.920;2023-07-13T11:30:48;28.20;52.90
3602;DHT22;1815;50.950;6.920;2023-07-13T11:36:23;28.20;53.20
3602;DHT22;1815;50.950;6.920;2023-07-13T11:39:10;28.20;53.30
3602;DHT22;1815;50.950;6.920;2023-07-13T11:41:44;28.20;53.30
3602;DHT22;1815;50.950;6.920;2023-07-13T11:44:14;28.20;53.20
3602;DHT22;1815;50.950;6.920;2023-07-13T11:46:46;28.10;53.20
3602;DHT22;1815;50.950;6.920;2023-07-13T11:49:16;28.00;53.10
3602;DHT22;1815;50.950;6.920;2023-07-13T11:51:42;27.80;53.20
3602;DHT22;1815;50.950;6.920;2023-07-13T11:54:26;27.80;53.40
3602;DHT22;1815;50.950;6.920;2023-07-13T11:56:54;27.70;53.70
3602;DHT22;1815;50.950;6.920;2023-07-13T11:59:20;27.70;53.80
3602;DHT22;1815;50.950;6.920;2023-07-13T12:01:51;27.80;53.80
3602;DHT22;1815;50.950;6.920;2023-07-13T12:04:29;27.80;53.90
3602;DHT22;1815;50.950;6.920;2023-07-13T12:07:23;27.80;53.80
3602;DHT22;1815;50.950;6.920;2023-07-13T12:09:48;27.80;53.70
3602;DHT22;1815;50.950;6.920;2023-07-13T12:12:21;27.90;53.80
3602;DHT22;1815;50.950;6.920;2023-07-13T12:14:51;27.90;53.70
3602;DHT22;1815;50.950;6.920;2023-07-13T12:17:22;27.90;53.60
3602;DHT22;1815;50.950;6.920;2023-07-13T12:19:50;27.80;53.60
3602;DHT22;1815;50.950;6.920;2023-07-13T12:22:17;27.80;53.60
3602;DHT22;1815;50.950;6.920;2023-07-13T12:24:45;27.80;53.30
3602;DHT22;1815;50.950;6.920;2023-07-13T12:27:26;27.70;53.20
3602;DHT22;1815;50.950;6.920;2023-07-13T12:30:01;27.70;53.30
3602;DHT22;1815;50.950;6.920;2023-07-13T12:32:27;27.80;53.40
3602;DHT22;1815;50.950;6.920;2023-07-13T12:35:29;27.90;53.50
3602;DHT22;1815;50.950;6.920;2023-07-13T12:37:57;28.00;53.60
3602;DHT22;1815;50.950;6.920;2023-07-13T12:40:28;28.30;54.60
3602;DHT22;1815;50.950;6.920;2023-07-13T12:42:56;28.60;55.00
3602;DHT22;1815;50.950;6.920;2023-07-13T12:45:25;28.90;55.30
3602;DHT22;1815;50.950;6.920;2023-07-13T12:48:04;29.10;54.90
3602;DHT22;1815;50.950;6.920;2023-07-13T12:50:37;29.30;54.30
3602;DHT22;1815;50.950;6.920;2023-07-13T12:53:05;29.50;53.70
3602;DHT22;1815;50.950;6.920;2023-07-13T12:55:42;29.60;53.10
3602;DHT22;1815;50.950;6.920;2023-07-13T12:58:26;29.70;52.10
3602;DHT22;1815;50.950;6.920;2023-07-13T13:00:58;29.70;51.70
3602;DHT22;1815;50.950;6.920;2023-07-13T13:03:46;29.70;51.60
3602;DHT22;1815;50.950;6.920;2023-07-13T13:08:53;29.60;51.20
3602;DHT22;1815;50.950;6.920;2023-07-13T13:11:21;29.60;51.10
3602;DHT22;1815;50.950;6.920;2023-07-13T13:13:49;29.60;51.10
3602;DHT22;1815;50.950;6.920;2023-07-13T13:18:47;29.50;51.20
3602;DHT22;1815;50.950;6.920;2023-07-13T13:21:14;29.50;51.20
3602;DHT22;1815;50.950;6.920;2023-07-13T13:23:40;29.50;51.00
3602;DHT22;1815;50.950;6.920;2023-07-13T13:26:14;29.40;50.40
3602;DHT22;1815;50.950;6.920;2023-07-13T13:28:42;29.30;50.00
3602;DHT22;1815;50.950;6.920;2023-07-13T13:31:08;29.30;49.90
3602;DHT22;1815;50.950;6.920;2023-07-13T13:33:38;29.30;49.60
3602;DHT22;1815;50.950;6.920;2023-07-13T13:36:19;29.20;49.60
3602;DHT22;1815;50.950;6.920;2023-07-13T13:38:46;29.10;49.60
3602;DHT22;1815;50.950;6.920;2023-07-13T13:41:13;29.00;49.80
3602;DHT22;1815;50.950;6.920;2023-07-13T13:43:43;29.00;49.90
3602;DHT22;1815;50.950;6.920;2023-07-13T13:46:22;28.90;49.70
3602;DHT22;1815;50.950;6.920;2023-07-13T13:48:50;28.90;49.70
3602;DHT22;1815;50.950;6.920;2023-07-13T13:51:20;28.90;50.00
3602;DHT22;1815;50.950;6.920;2023-07-13T13:53:47;28.90;50.00
3602;DHT22;1815;50.950;6.920;2023-07-13T13:56:14;28.90;50.00
3602;DHT22;1815;50.950;6.920;2023-07-13T13:58:40;28.90;50.00
3602;DHT22;1815;50.950;6.920;2023-07-13T14:01:16;28.80;49.80
3602;DHT22;1815;50.950;6.920;2023-07-13T14:03:43;28.70;49.40
3602;DHT22;1815;50.950;6.920;2023-07-13T14:06:12;28.70;49.60
3602;DHT22;1815;50.950;6.920;2023-07-13T14:08:38;28.80;49.70
3602;DHT22;1815;50.950;6.920;2023-07-13T14:11:04;28.70;49.80
3602;DHT22;1815;50.950;6.920;2023-07-13T14:13:38;28.70;49.70
3602;DHT22;1815;50.950;6.920;2023-07-13T14:16:15;28.70;49.70
3602;DHT22;1815;50.950;6.920;2023-07-13T14:18:43;28.70;49.60
3602;DHT22;1815;50.950;6.920;2023-07-13T14:21:20;28.70;49.50
3602;DHT22;1815;50.950;6.920;2023-07-13T14:23:47;28.60;49.60
3602;DHT22;1815;50.950;6.920;2023-07-13T14:26:16;28.60;49.60
3602;DHT22;1815;50.950;6.920;2023-07-13T14:28:45;28.60;49.70
3602;DHT22;1815;50.950;6.920;2023-07-13T14:31:12;28.60;49.60
3602;DHT22;1815;50.950;6.920;2023-07-13T14:33:39;28.50;49.70
3602;DHT22;1815;50.950;6.920;2023-07-13T14:36:23;28.50;49.70
3602;DHT22;1815;50.950;6.920;2023-07-13T14:38:50;28.40;49.60
3602;DHT22;1815;50.950;6.920;2023-07-13T14:41:16;28.40;49.70
3602;DHT22;1815;50.950;6.920;2023-07-13T14:43:42;28.40;49.80
3602;DHT22;1815;50.950;6.920;2023-07-13T14:46:37;28.40;50.10
3602;DHT22;1815;50.950;6.920;2023-07-13T14:49:24;28.50;49.80
3602;DHT22;1815;50.950;6.920;2023-07-13T14:51:50;28.60;49.80
3602;DHT22;1815;50.950;6.920;2023-07-13T14:54:16;28.60;49.90
3602;DHT22;1815;50.950;6.920;2023-07-13T14:56:42;28.60;49.80
3602;DHT22;1815;50.950;6.920;2023-07-13T14:59:07;28.70;49.80
3602;DHT22;1815;50.950;6.920;2023-07-13T15:01:37;28.70;49.80
3602;DHT22;1815;50.950;6.920;2023-07-13T15:04:04;28.80;49.80
3602;DHT22;1815;50.950;6.920;2023-07-13T15:06:30;28.80;49.80
3602;DHT22;1815;50.950;6.920;2023-07-13T15:08:57;28.90;49.70
3602;DHT22;1815;50.950;6.920;2023-07-13T15:11:23;28.90;49.50
3602;DHT22;1815;50.950;6.920;2023-07-13T15:13:49;28.90;49.10
3602;DHT22;1815;50.950;6.920;2023-07-13T15:16:24;28.90;48.40
3602;DHT22;1815;50.950;6.920;2023-07-13T15:18:51;28.90;48.50
3602;DHT22;1815;50.950;6.920;2023-07-13T15:21:23;28.90;48.40
3602;DHT22;1815;50.950;6.920;2023-07-13T15:23:50;28.80;48.40
3602;DHT22;1815;50.950;6.920;2023-07-13T15:26:17;28.80;48.60
3602;DHT22;1815;50.950;6.920;2023-07-13T15:28:44;28.70;48.50
3602;DHT22;1815;50.950;6.920;2023-07-13T15:31:26;28.60;48.40
3602;DHT22;1815;50.950;6.920;2023-07-13T15:33:58;28.50;48.40
3602;DHT22;1815;50.950;6.920;2023-07-13T15:36:25;28.30;48.40
3602;DHT22;1815;50.950;6.920;2023-07-13T15:38:55;28.20;48.50
3602;DHT22;1815;50.950;6.920;2023-07-13T15:41:24;28.10;48.60
3602;DHT22;1815;50.950;6.920;2023-07-13T15:43:53;27.90;48.70
3602;DHT22;1815;50.950;6.920;2023-07-13T15:46:20;27.80;49.00
3602;DHT22;1815;50.950;6.920;2023-07-13T15:48:48;27.70;49.20
3602;DHT22;1815;50.950;6.920;2023-07-13T15:51:26;27.60;49.40
3602;DHT22;1815;50.950;6.920;2023-07-13T15:53:58;27.50;49.50
3602;DHT22;1815;50.950;6.920;2023-07-13T15:56:27;27.50;49.60
3602;DHT22;1815;50.950;6.920;2023-07-13T15:58:54;27.40;49.60
3602;DHT22;1815;50.950;6.920;2023-07-13T16:01:24;27.30;49.80
3602;DHT22;1815;50.950;6.920;2023-07-13T16:03:51;27.20;50.10
3602;DHT22;1815;50.950;6.920;2023-07-13T16:08:51;26.90;51.00
3602;DHT22;1815;50.950;6.920;2023-07-13T16:11:27;26.70;51.30
3602;DHT22;1815;50.950;6.920;2023-07-13T16:13:53;26.50;51.90
3602;DHT22;1815;50.950;6.920;2023-07-13T16:16:22;26.40;52.00
3602;DHT22;1815;50.950;6.920;2023-07-13T16:18:53;26.30;52.50
3602;DHT22;1815;50.950;6.920;2023-07-13T16:21:23;26.10;52.70
3602;DHT22;1815;50.950;6.920;2023-07-13T16:23:51;26.00;53.20
3602;DHT22;1815;50.950;6.920;2023-07-13T16:26:27;25.90;53.50
3602;DHT22;1815;50.950;6.920;2023-07-13T16:28:54;25.80;54.10
3602;DHT22;1815;50.950;6.920;2023-07-13T16:31:30;25.70;53.90
3602;DHT22;1815;50.950;6.920;2023-07-13T16:33:58;25.70;54.40
3602;DHT22;1815;50.950;6.920;2023-07-13T16:36:25;25.60;54.40
3602;DHT22;1815;50.950;6.920;2023-07-13T16:38:51;25.60;54.60
3602;DHT22;1815;50.950;6.920;2023-07-13T16:41:17;25.60;54.60
3602;DHT22;1815;50.950;6.920;2023-07-13T16:43:42;25.60;54.90
3602;DHT22;1815;50.950;6.920;2023-07-13T16:46:11;25.50;54.80
3602;DHT22;1815;50.950;6.920;2023-07-13T16:48:40;25.50;55.00
3602;DHT22;1815;50.950;6.920;2023-07-13T16:51:06;25.50;55.10
3602;DHT22;1815;50.950;6.920;2023-07-13T16:53:33;25.50;55.10
3602;DHT22;1815;50.950;6.920;2023-07-13T16:56:00;25.50;55.30
3602;DHT22;1815;50.950;6.920;2023-07-13T16:58:29;25.40;55.50